Time;durP1;ratioP1;P1;durP2;ratioP2;P2;SDS_P1;SDS_P2;PMS_P1;PMS_P2;Temp;Humidity;BMP_temperature;BMP_pressure;BME280_temperature;BME280_humidity;BME280_pressure;Samples;Min_cycle;Max_cycle;Signal;HPM_P1;HPM_P2
2022/05/13 00:00:06;;;;;;;;;;;;;;;10.26;100.00;101698.72;2611258;36;19950;-50
2022/05/13 00:02:35;;;;;;;;;;;;;;;10.16;100.00;101699.44;2610788;36;20038;-49
2022/05/13 00:05:03;;;;;;;;;;;;;;;10.19;100.00;101701.03;2611643;36;20416;-51
2022/05/13 00:07:31;;;;;;;;;;;;;;;10.17;100.00;101701.16;2611076;36;20038;-51
2022/05/13 00:10:00;;;;;;;;;;;;;;;10.17;100.00;101701.16;2610596;36;20034;-54
2022/05/13 00:12:29;;;;;;;;;;;;;;;10.26;100.00;101698.72;2610014;31;20597;-52
2022/05/13 00:15:00;;;;;;;;;;;;;;;10.35;100.00;101695.41;2610847;36;19967;-50
2022/05/13 00:17:29;;;;;;;;;;;;;;;10.31;100.00;101689.34;2612026;31;20058;-52
2022/05/13 00:19:57;;;;;;;;;;;;;;;10.33;100.00;101690.16;2603768;36;20479;-52
2022/05/13 00:22:25;;;;;;;;;;;;;;;10.34;100.00;101693.69;2611508;36;20463;-50
2022/05/13 00:24:55;;;;;;;;;;;;;;;10.46;100.00;101695.44;2610261;36;20066;-51
2022/05/13 00:27:23;;;;;;;;;;;;;;;10.44;100.00;101697.41;2611692;36;20403;-50
2022/05/13 00:29:51;;;;;;;;;;;;;;;10.42;100.00;101695.81;2611404;36;19966;-49
2022/05/13 00:32:22;;;;;;;;;;;;;;;10.41;100.00;101696.78;2611500;36;20433;-53
2022/05/13 00:34:50;;;;;;;;;;;;;;;10.51;100.00;101697.78;2610915;31;19958;-54
2022/05/13 00:37:19;;;;;;;;;;;;;;;10.33;100.00;101691.94;2610913;36;20819;-54
2022/05/13 00:39:47;;;;;;;;;;;;;;;10.28;100.00;101691.44;2610256;36;20586;-49
2022/05/13 00:42:17;;;;;;;;;;;;;;;10.39;100.00;101686.13;2611260;31;19953;-53
2022/05/13 00:44:45;;;;;;;;;;;;;;;10.59;100.00;101681.09;2611654;36;19947;-50
2022/05/13 00:47:14;;;;;;;;;;;;;;;10.52;100.00;101672.59;2611885;36;19950;-52
2022/05/13 00:49:45;;;;;;;;;;;;;;;10.65;100.00;101678.78;2611552;36;20529;-50
2022/05/13 00:52:13;;;;;;;;;;;;;;;10.68;100.00;101677.69;2611507;36;20295;-50
2022/05/13 00:54:42;;;;;;;;;;;;;;;10.74;100.00;101674.53;2610696;36;20069;-49
2022/05/13 00:57:11;;;;;;;;;;;;;;;10.78;100.00;101673.31;2611956;36;20085;-50
2022/05/13 00:59:40;;;;;;;;;;;;;;;10.97;100.00;101667.38;2612458;36;19947;-53
2022/05/13 01:02:08;;;;;;;;;;;;;;;10.96;100.00;101671.03;2611069;36;19954;-53
2022/05/13 01:04:37;;;;;;;;;;;;;;;10.88;100.00;101668.09;2611972;36;19981;-53
2022/05/13 01:07:11;;;;;;;;;;;;;;;10.85;100.00;101660.22;2611435;36;20436;-51
2022/05/13 01:09:40;;;;;;;;;;;;;;;10.79;100.00;101658.88;2611222;36;20148;-50
2022/05/13 01:12:12;;;;;;;;;;;;;;;10.80;100.00;101660.59;2611597;36;19950;-53
2022/05/13 01:14:43;;;;;;;;;;;;;;;10.86;100.00;101654.75;2612343;36;19950;-50
2022/05/13 01:20:01;;;;;;;;;;;;;;;10.90;100.00;101657.22;2612545;36;20332;-50
2022/05/13 01:22:32;;;;;;;;;;;;;;;10.89;100.00;101658.19;2612031;31;19951;-50
2022/05/13 01:25:00;;;;;;;;;;;;;;;10.95;100.00;101649.63;2611974;36;20305;-52
2022/05/13 01:27:28;;;;;;;;;;;;;;;10.75;100.00;101643.06;2611919;36;20000;-52
2022/05/13 01:29:57;;;;;;;;;;;;;;;10.77;100.00;101652.75;2612166;36;20509;-52
2022/05/13 01:32:25;;;;;;;;;;;;;;;10.92;100.00;101652.53;2611853;36;20089;-50
2022/05/13 01:34:53;;;;;;;;;;;;;;;10.92;100.00;101652.53;2611861;36;20045;-51
2022/05/13 01:37:21;;;;;;;;;;;;;;;10.99;100.00;101656.47;2612297;36;20029;-54
2022/05/13 01:39:52;;;;;;;;;;;;;;;10.94;100.00;101655.97;2611053;36;20326;-49
2022/05/13 01:42:20;;;;;;;;;;;;;;;10.86;100.00;101657.44;2612536;36;20413;-53
2022/05/13 01:44:48;;;;;;;;;;;;;;;10.82;100.00;101658.66;2611482;36;20077;-51
2022/05/13 01:47:16;;;;;;;;;;;;;;;10.79;100.00;101661.59;2612476;36;20469;-48
2022/05/13 01:49:44;;;;;;;;;;;;;;;10.71;100.00;101665.84;2612168;36;19970;-47
2022/05/13 01:52:12;;;;;;;;;;;;;;;10.73;100.00;101662.03;2611303;36;20034;-51
2022/05/13 01:54:40;;;;;;;;;;;;;;;10.65;100.00;101667.16;2611424;36;19981;-53
2022/05/13 01:57:11;;;;;;;;;;;;;;;10.56;100.00;101662.47;2611603;31;20688;-50
2022/05/13 01:59:39;;;;;;;;;;;;;;;10.52;100.00;101654.63;2612383;36;20535;-50
2022/05/13 02:02:07;;;;;;;;;;;;;;;10.47;100.00;101656.81;2611338;36;20399;-52
2022/05/13 02:04:35;;;;;;;;;;;;;;;10.43;100.00;101657.16;2611985;36;20519;-51
2022/05/13 02:07:03;;;;;;;;;;;;;;;10.45;100.00;101648.00;2611525;36;20049;-51
2022/05/13 02:09:31;;;;;;;;;;;;;;;10.45;100.00;101656.09;2610834;36;20080;-50
2022/05/13 02:11:59;;;;;;;;;;;;;;;10.50;100.00;101658.41;2612018;36;20037;-52
2022/05/13 02:14:29;;;;;;;;;;;;;;;10.48;100.00;101658.53;2611525;36;20034;-51
2022/05/13 02:16:58;;;;;;;;;;;;;;;10.58;100.00;101652.44;2612067;36;20038;-53
2022/05/13 02:19:26;;;;;;;;;;;;;;;10.52;100.00;101656.47;2611970;36;20356;-50
2022/05/13 02:21:54;;;;;;;;;;;;;;;10.55;100.00;101655.38;2611462;31;19947;-50
2022/05/13 02:24:22;;;;;;;;;;;;;;;10.56;100.00;101646.34;2611153;36;19946;-49
2022/05/13 02:26:50;;;;;;;;;;;;;;;10.50;100.00;101655.72;2611112;36;20073;-49
2022/05/13 02:29:18;;;;;;;;;;;;;;;10.58;100.00;101644.38;2612187;36;20370;-51
2022/05/13 02:31:48;;;;;;;;;;;;;;;10.41;100.00;101651.91;2612021;31;20038;-53
2022/05/13 02:34:16;;;;;;;;;;;;;;;10.39;100.00;101656.50;2610970;36;19959;-53
2022/05/13 02:36:44;;;;;;;;;;;;;;;10.44;100.00;101651.66;2612125;36;20109;-54
2022/05/13 02:39:13;;;;;;;;;;;;;;;10.41;100.00;101651.91;2611609;36;19962;-51
2022/05/13 02:41:44;;;;;;;;;;;;;;;10.32;100.00;101644.47;2611846;36;19946;-53
2022/05/13 02:44:14;;;;;;;;;;;;;;;10.37;100.00;101647.72;2610569;31;19947;-50
2022/05/13 02:46:43;;;;;;;;;;;;;;;10.42;100.00;101650.91;2606407;36;19950;-49
2022/05/13 02:49:13;;;;;;;;;;;;;;;10.47;100.00;101637.97;2611967;36;19973;-51
2022/05/13 02:51:42;;;;;;;;;;;;;;;10.45;100.00;101621.09;2611943;36;19946;-52
2022/05/13 02:54:10;;;;;;;;;;;;;;;10.47;100.00;101619.13;2611147;36;19954;-51
2022/05/13 02:56:38;;;;;;;;;;;;;;;10.43;100.00;101624.88;2611680;36;19950;-49
2022/05/13 02:59:06;;;;;;;;;;;;;;;10.39;100.00;101616.16;2611968;36;19974;-51
2022/05/13 03:01:35;;;;;;;;;;;;;;;10.44;100.00;101615.81;2612437;36;20431;-51
2022/05/13 03:04:03;;;;;;;;;;;;;;;10.44;100.00;101615.81;2612126;31;20671;-54
2022/05/13 03:06:35;;;;;;;;;;;;;;;10.39;100.00;101618.00;2612001;36;20351;-51
2022/05/13 03:09:04;;;;;;;;;;;;;;;10.37;100.00;101615.41;2611846;36;19954;-52
2022/05/13 03:11:32;;;;;;;;;;;;;;;10.48;100.00;101628.94;2611764;36;20037;-51
2022/05/13 03:14:00;;;;;;;;;;;;;;;10.42;100.00;101624.00;2611565;36;19954;-49
2022/05/13 03:16:29;;;;;;;;;;;;;;;10.41;100.00;101633.06;2611689;36;20042;-49
2022/05/13 03:18:59;;;;;;;;;;;;;;;10.46;100.00;101635.41;2612168;36;20433;-48
2022/05/13 03:21:27;;;;;;;;;;;;;;;10.51;100.00;101644.84;2611947;36;19951;-54
2022/05/13 03:23:59;;;;;;;;;;;;;;;10.63;100.00;101650.25;2611825;36;20590;-49
2022/05/13 03:26:27;;;;;;;;;;;;;;;10.69;100.00;101652.50;2611763;36;20298;-53
2022/05/13 03:28:55;;;;;;;;;;;;;;;10.71;100.00;101653.22;2612126;36;20065;-56
2022/05/13 03:31:23;;;;;;;;;;;;;;;10.59;100.00;101659.56;2611519;36;20038;-50
2022/05/13 03:33:51;;;;;;;;;;;;;;;10.57;100.00;101658.78;2611519;36;20057;-55
2022/05/13 03:36:19;;;;;;;;;;;;;;;10.55;100.00;101655.38;2612130;31;20105;-50
2022/05/13 03:38:47;;;;;;;;;;;;;;;10.51;100.00;101650.22;2612537;36;20351;-49
2022/05/13 03:41:18;;;;;;;;;;;;;;;10.54;100.00;101654.53;2611767;36;20428;-49
2022/05/13 03:43:46;;;;;;;;;;;;;;;10.67;100.00;101654.44;2611251;36;19981;-50
2022/05/13 03:46:14;;;;;;;;;;;;;;;10.61;100.00;101655.75;2611947;36;19992;-50
2022/05/13 03:48:42;;;;;;;;;;;;;;;10.62;100.00;101656.63;2612323;36;20568;-56
2022/05/13 03:51:10;;;;;;;;;;;;;;;10.67;100.00;101659.81;2611831;36;20037;-53
2022/05/13 03:53:38;;;;;;;;;;;;;;;10.73;100.00;101661.19;2612205;31;20435;-49
2022/05/13 03:56:07;;;;;;;;;;;;;;;10.71;100.00;101671.22;2611735;36;20440;-50
2022/05/13 03:58:39;;;;;;;;;;;;;;;10.78;100.00;101659.84;2611915;36;20474;-53
2022/05/13 04:01:07;;;;;;;;;;;;;;;10.86;100.00;101659.25;2611698;31;19946;-50
2022/05/13 04:03:35;;;;;;;;;;;;;;;10.93;100.00;101667.75;2610618;36;20442;-50
2022/05/13 04:08:59;;;;;;;;;;;;;;;10.98;100.00;101660.16;2611944;31;19950;-52
2022/05/13 04:11:27;;;;;;;;;;;;;;;11.08;100.00;101668.38;2610852;36;19957;-50
2022/05/13 04:16:39;;;;;;;;;;;;;;;11.19;100.00;101666.56;2611991;36;19951;-53
2022/05/13 04:19:07;;;;;;;;;;;;;;;11.25;100.00;101673.31;2611448;36;20029;-50
2022/05/13 04:21:36;;;;;;;;;;;;;;;11.26;100.00;101666.06;2611110;36;20073;-49
2022/05/13 04:24:05;;;;;;;;;;;;;;;11.29;100.00;101666.72;2611710;36;20343;-48
2022/05/13 04:26:34;;;;;;;;;;;;;;;11.39;100.00;101666.81;2610743;36;19947;-52
2022/05/13 04:29:05;;;;;;;;;;;;;;;11.43;100.00;101668.28;2611675;36;19961;-49
2022/05/13 04:31:34;;;;;;;;;;;;;;;11.51;100.00;101668.56;2611657;36;19973;-50
2022/05/13 04:34:03;;;;;;;;;;;;;;;11.58;100.00;101667.06;2611911;36;20442;-55
2022/05/13 04:36:31;;;;;;;;;;;;;;;11.63;100.00;101674.81;2611455;36;19947;-52
2022/05/13 04:38:59;;;;;;;;;;;;;;;11.71;100.00;101675.03;2611505;36;20057;-52
2022/05/13 04:44:12;;;;;;;;;;;;;;;11.61;100.00;101675.91;2610933;36;20565;-49
2022/05/13 04:46:40;;;;;;;;;;;;;;;11.62;100.00;101683.03;2611195;36;19951;-52
2022/05/13 04:49:09;;;;;;;;;;;;;;;11.65;100.00;101682.78;2612040;36;20442;-51
2022/05/13 04:51:37;;;;;;;;;;;;;;;11.71;100.00;101683.13;2611973;31;20397;-53
2022/05/13 04:54:06;;;;;;;;;;;;;;;11.73;100.00;101688.38;2612286;31;20090;-50
2022/05/13 04:56:34;;;;;;;;;;;;;;;11.62;100.00;101688.41;2611519;36;20061;-49
2022/05/13 04:59:02;;;;;;;;;;;;;;;11.73;100.00;101691.09;2612864;36;20515;-51
2022/05/13 05:01:33;;;;;;;;;;;;;;;11.75;100.00;101691.84;2610522;36;20079;-53
2022/05/13 05:04:01;;;;;;;;;;;;;;;11.62;100.00;101693.81;2613061;36;20053;-52
2022/05/13 05:06:29;;;;;;;;;;;;;;;11.71;100.00;101704.69;2611300;36;19985;-56
2022/05/13 05:08:57;;;;;;;;;;;;;;;11.71;100.00;101709.25;2612502;36;19954;-53
2022/05/13 05:11:25;;;;;;;;;;;;;;;11.78;100.00;101705.06;2612397;31;19958;-55
2022/05/13 05:13:54;;;;;;;;;;;;;;;11.80;100.00;101710.34;2613307;31;20610;-53
2022/05/13 05:16:22;;;;;;;;;;;;;;;11.92;100.00;101715.63;2612401;36;20469;-51
2022/05/13 05:18:53;;;;;;;;;;;;;;;11.96;100.00;101728.88;2611416;36;19958;-52
2022/05/13 05:21:21;;;;;;;;;;;;;;;11.90;100.00;101719.41;2611480;36;20001;-49
2022/05/13 05:23:50;;;;;;;;;;;;;;;11.84;100.00;101715.38;2611672;36;20042;-50
2022/05/13 05:26:19;;;;;;;;;;;;;;;12.10;100.00;101720.50;2612346;36;19987;-52
2022/05/13 05:28:49;;;;;;;;;;;;;;;12.24;100.00;101711.28;2612271;36;20466;-55
2022/05/13 05:31:17;;;;;;;;;;;;;;;12.37;100.00;101721.94;2611858;36;19977;-51
2022/05/13 05:33:45;;;;;;;;;;;;;;;12.39;100.00;101717.28;2611719;36;20083;-51
2022/05/13 05:36:16;;;;;;;;;;;;;;;12.40;100.00;101722.53;2612381;36;20547;-54
2022/05/13 05:38:44;;;;;;;;;;;;;;;12.34;100.00;101724.91;2612126;31;20073;-49
2022/05/13 05:41:12;;;;;;;;;;;;;;;12.60;100.00;101718.19;2611750;36;20012;-53
2022/05/13 05:43:40;;;;;;;;;;;;;;;12.56;100.00;101726.69;2605548;36;20572;-55
2022/05/13 05:46:08;;;;;;;;;;;;;;;12.51;100.00;101724.34;2611752;36;20098;-54
2022/05/13 05:48:36;;;;;;;;;;;;;;;12.49;100.00;101726.31;2611468;36;20038;-49
2022/05/13 05:51:04;;;;;;;;;;;;;;;12.58;100.00;101722.84;2612954;36;19954;-49
2022/05/13 05:59:00;;;;;;;;;;;;;;;12.92;100.00;101735.38;2613077;36;20420;-49
2022/05/13 06:01:28;;;;;;;;;;;;;;;13.11;100.00;101740.91;2612558;31;19946;-53
2022/05/13 06:03:56;;;;;;;;;;;;;;;12.99;100.00;101746.53;2613165;36;20434;-55
2022/05/13 06:06:24;;;;;;;;;;;;;;;13.17;100.00;101753.03;2612664;36;19985;-55
2022/05/13 06:08:55;;;;;;;;;;;;;;;13.21;100.00;101742.84;2612586;36;20045;-50
2022/05/13 06:11:23;;;;;;;;;;;;;;;13.17;100.00;101742.22;2612927;36;19946;-54
2022/05/13 06:13:53;;;;;;;;;;;;;;;13.25;100.00;101745.16;2613263;36;19954;-52
2022/05/13 06:16:22;;;;;;;;;;;;;;;13.39;100.00;101751.25;2612082;36;19951;-53
2022/05/13 06:18:50;;;;;;;;;;;;;;;13.49;100.00;101753.00;2612835;36;19958;-52
2022/05/13 06:21:18;;;;;;;;;;;;;;;13.31;100.00;101754.59;2612973;31;20470;-50
2022/05/13 06:23:46;;;;;;;;;;;;;;;13.40;100.00;101761.09;2613224;36;20470;-51
2022/05/13 06:26:17;;;;;;;;;;;;;;;13.58;100.00;101759.47;2611419;36;19951;-50
2022/05/13 06:28:45;;;;;;;;;;;;;;;13.65;100.00;101754.38;2612769;36;19958;-55
2022/05/13 06:31:13;;;;;;;;;;;;;;;13.80;100.00;101753.03;2612900;36;19989;-51
2022/05/13 06:33:41;;;;;;;;;;;;;;;14.07;100.00;101758.84;2612568;36;19950;-49
2022/05/13 06:36:09;;;;;;;;;;;;;;;14.01;100.00;101761.09;2613110;36;20425;-49
2022/05/13 06:38:37;;;;;;;;;;;;;;;14.00;100.00;101759.38;2613039;36;20073;-53
2022/05/13 06:41:05;;;;;;;;;;;;;;;14.07;100.00;101761.53;2613210;31;20411;-55
2022/05/13 06:43:36;;;;;;;;;;;;;;;14.42;100.00;101771.06;2605563;36;20378;-50
2022/05/13 06:46:05;;;;;;;;;;;;;;;14.39;100.00;101774.91;2605937;36;20706;-49
2022/05/13 06:48:33;;;;;;;;;;;;;;;14.46;100.00;101777.91;2612718;36;20104;-53
2022/05/13 06:51:02;;;;;;;;;;;;;;;14.68;100.00;101769.56;2611988;36;20080;-55
2022/05/13 06:53:30;;;;;;;;;;;;;;;14.58;100.00;101762.41;2612088;36;20502;-52
2022/05/13 06:55:58;;;;;;;;;;;;;;;14.61;100.00;101768.41;2611531;36;20059;-53
2022/05/13 06:58:27;;;;;;;;;;;;;;;14.81;100.00;101769.31;2612778;36;20073;-53
2022/05/13 07:00:57;;;;;;;;;;;;;;;14.61;100.00;101765.69;2612006;36;20448;-52
2022/05/13 07:03:25;;;;;;;;;;;;;;;14.98;100.00;101764.16;2613107;36;20727;-50
2022/05/13 07:05:53;;;;;;;;;;;;;;;14.96;100.00;101767.03;2611969;36;24209;-54
2022/05/13 07:08:21;;;;;;;;;;;;;;;15.10;100.00;101770.28;2612813;36;20697;-51
2022/05/13 07:10:49;;;;;;;;;;;;;;;15.16;100.00;101761.56;2612688;36;20390;-52
2022/05/13 07:13:18;;;;;;;;;;;;;;;15.29;100.00;101762.13;2612907;36;19966;-55
2022/05/13 07:15:46;;;;;;;;;;;;;;;15.13;100.00;101765.44;2612908;36;19946;-52
2022/05/13 07:18:17;;;;;;;;;;;;;;;15.26;100.00;101770.56;2613070;31;19959;-51
2022/05/13 07:20:45;;;;;;;;;;;;;;;15.72;100.00;101782.47;2612862;36;20088;-51
2022/05/13 07:23:13;;;;;;;;;;;;;;;15.77;100.00;101785.59;2611470;36;19969;-55
2022/05/13 07:25:41;;;;;;;;;;;;;;;15.33;100.00;101787.13;2612315;36;20034;-58
2022/05/13 07:28:09;;;;;;;;;;;;;;;15.34;100.00;101784.28;2612362;31;20029;-54
2022/05/13 07:30:37;;;;;;;;;;;;;;;15.24;100.00;101783.44;2612701;31;20461;-52
2022/05/13 07:33:05;;;;;;;;;;;;;;;15.57;100.00;101784.78;2611302;36;19951;-52
2022/05/13 07:35:36;;;;;;;;;;;;;;;15.64;100.00;101786.94;2611853;36;19989;-52
2022/05/13 07:38:04;;;;;;;;;;;;;;;15.69;100.00;101788.19;2612231;31;20053;-53
2022/05/13 07:43:12;;;;;;;;;;;;;;;15.65;100.00;101797.63;2612278;36;19951;-54
2022/05/13 07:45:41;;;;;;;;;;;;;;;16.21;100.00;101797.72;2605987;36;20594;-55
2022/05/13 07:48:09;;;;;;;;;;;;;;;15.85;100.00;101800.31;2612055;36;19946;-56
2022/05/13 07:50:41;;;;;;;;;;;;;;;15.68;100.00;101801.88;2611883;36;20069;-56
2022/05/13 07:53:10;;;;;;;;;;;;;;;15.45;100.00;101804.09;2612597;31;20459;-50
2022/05/13 07:55:38;;;;;;;;;;;;;;;15.83;100.00;101805.91;2605409;36;20050;-53
2022/05/13 07:58:06;;;;;;;;;;;;;;;16.24;100.00;101814.59;2612855;36;20101;-51
2022/05/13 08:00:37;;;;;;;;;;;;;;;16.04;100.00;101811.09;2611473;36;20455;-54
2022/05/13 08:03:07;;;;;;;;;;;;;;;16.25;100.00;101804.59;2611401;36;19954;-53
2022/05/13 08:05:36;;;;;;;;;;;;;;;16.00;100.00;101812.41;2611792;36;19955;-51
2022/05/13 08:08:08;;;;;;;;;;;;;;;16.09;100.00;101807.94;2612209;36;19964;-53
2022/05/13 08:10:37;;;;;;;;;;;;;;;16.45;100.00;101808.91;2611560;36;20088;-53
2022/05/13 08:13:05;;;;;;;;;;;;;;;16.65;100.00;101811.50;2612757;36;20125;-51
2022/05/13 08:15:33;;;;;;;;;;;;;;;16.45;100.00;101811.63;2611763;36;20038;-52
2022/05/13 08:18:01;;;;;;;;;;;;;;;17.04;100.00;101808.56;2612593;36;20147;-55
2022/05/13 08:20:30;;;;;;;;;;;;;;;17.21;100.00;101808.69;2610801;36;19962;-54
2022/05/13 08:22:59;;;;;;;;;;;;;;;16.92;100.00;101807.94;2613283;31;20489;-52
2022/05/13 08:25:30;;;;;;;;;;;;;;;16.73;100.00;101819.75;2612264;31;20042;-54
2022/05/13 08:27:58;;;;;;;;;;;;;;;16.46;100.00;101813.34;2612190;31;19985;-50
2022/05/13 08:30:26;;;;;;;;;;;;;;;16.67;100.00;101809.50;2612417;36;19966;-50
2022/05/13 08:32:54;;;;;;;;;;;;;;;16.90;100.00;101825.41;2611924;36;20458;-55
2022/05/13 08:35:23;;;;;;;;;;;;;;;16.94;100.00;101821.38;2612523;36;20062;-53
2022/05/13 08:37:52;;;;;;;;;;;;;;;17.48;100.00;101816.75;2611516;36;19958;-56
2022/05/13 08:40:24;;;;;;;;;;;;;;;17.05;100.00;101834.75;2611782;36;20336;-55
2022/05/13 08:42:55;;;;;;;;;;;;;;;16.78;100.00;101838.31;2612568;36;20460;-53
2022/05/13 08:45:24;;;;;;;;;;;;;;;16.52;100.00;101847.22;2611530;31;19950;-54
2022/05/13 08:47:54;;;;;;;;;;;;;;;16.68;100.00;101835.69;2611189;36;20033;-53
2022/05/13 08:50:27;;;;;;;;;;;;;;;16.74;100.00;101835.06;2611914;36;20085;-53
2022/05/13 08:53:11;;;;;;;;;;;;;;;17.03;100.00;101836.75;2612717;31;20081;-56
2022/05/13 08:55:42;;;;;;;;;;;;;;;17.03;100.00;101842.19;2606223;36;20531;-56
2022/05/13 08:58:15;;;;;;;;;;;;;;;17.25;100.00;101843.59;2612832;36;20624;-56
2022/05/13 09:00:45;;;;;;;;;;;;;;;17.06;100.00;101852.75;2613853;36;20022;-55
2022/05/13 09:03:22;;;;;;;;;;;;;;;17.12;100.00;101849.44;2613041;47;20061;-54
2022/05/13 09:05:51;;;;;;;;;;;;;;;17.41;100.00;101853.75;2605856;36;20077;-56
2022/05/13 09:08:20;;;;;;;;;;;;;;;17.30;100.00;101854.03;2612214;36;19978;-57
2022/05/13 09:10:55;;;;;;;;;;;;;;;16.97;100.00;101860.00;2613101;36;20038;-53
2022/05/13 09:13:29;;;;;;;;;;;;;;;17.39;100.00;101844.03;2613050;31;20523;-52
2022/05/13 09:15:58;;;;;;;;;;;;;;;17.32;100.00;101846.56;2612700;36;19954;-49
2022/05/13 09:18:35;;;;;;;;;;;;;;;17.30;100.00;101856.75;2613346;36;19992;-54
2022/05/13 09:21:04;;;;;;;;;;;;;;;17.31;100.00;101853.00;2613175;36;19946;-53
2022/05/13 09:23:33;;;;;;;;;;;;;;;17.57;100.00;101849.50;2613478;36;19969;-55
2022/05/13 09:26:04;;;;;;;;;;;;;;;16.84;100.00;101858.63;2613282;36;19978;-53
2022/05/13 09:28:36;;;;;;;;;;;;;;;17.09;100.00;101857.91;2612167;36;19947;-53
2022/05/13 09:31:09;;;;;;;;;;;;;;;16.81;100.00;101854.34;2612087;36;20465;-54
2022/05/13 09:33:38;;;;;;;;;;;;;;;17.24;100.00;101843.75;2613207;36;19950;-54
2022/05/13 09:36:08;;;;;;;;;;;;;;;17.59;100.00;101852.91;2613456;36;20580;-54
2022/05/13 09:38:43;;;;;;;;;;;;;;;17.88;100.00;101847.16;2613056;36;19946;-55
2022/05/13 09:41:12;;;;;;;;;;;;;;;17.66;100.00;101853.97;2612096;36;19997;-54
2022/05/13 09:43:44;;;;;;;;;;;;;;;17.51;100.00;101859.97;2613242;36;20004;-53
2022/05/13 09:46:14;;;;;;;;;;;;;;;17.56;100.00;101850.50;2613329;36;19977;-56
2022/05/13 09:48:53;;;;;;;;;;;;;;;17.19;100.00;101851.53;2613065;36;20414;-56
2022/05/13 09:51:24;;;;;;;;;;;;;;;17.19;100.00;101851.53;2613138;36;20014;-57
2022/05/13 09:54:05;;;;;;;;;;;;;;;17.98;100.00;101844.38;2613435;36;19946;-55
2022/05/13 09:56:37;;;;;;;;;;;;;;;18.88;100.00;101843.91;2613612;31;20062;-56
2022/05/13 09:59:15;;;;;;;;;;;;;;;19.10;100.00;101841.56;2613523;31;20057;-54
2022/05/13 10:01:43;;;;;;;;;;;;;;;18.40;100.00;101854.44;2613397;31;20062;-55
2022/05/13 10:04:12;;;;;;;;;;;;;;;17.95;100.00;101847.41;2613146;36;20181;-55
2022/05/13 10:06:41;;;;;;;;;;;;;;;18.35;100.00;101862.28;2606274;36;19981;-54
2022/05/13 10:14:36;;;;;;;;;;;;;;;17.93;100.00;101854.88;2613181;36;20537;-56
2022/05/13 10:17:07;;;;;;;;;;;;;;;18.29;100.00;101862.94;2613329;36;20015;-52
2022/05/13 10:19:38;;;;;;;;;;;;;;;18.13;100.00;101872.69;2613170;31;20521;-51
2022/05/13 10:22:12;;;;;;;;;;;;;;;17.98;100.00;101872.44;2612725;31;19947;-55
2022/05/13 10:24:44;;;;;;;;;;;;;;;17.98;100.00;101866.16;2612578;36;19946;-53
2022/05/13 10:27:23;;;;;;;;;;;;;;;18.01;100.00;101863.09;2612676;36;19992;-52
2022/05/13 10:29:57;;;;;;;;;;;;;;;18.24;100.00;101859.81;2612307;31;20038;-56
2022/05/13 10:32:28;;;;;;;;;;;;;;;18.12;100.00;101872.88;2613170;31;19954;-51
2022/05/13 10:34:57;;;;;;;;;;;;;;;18.63;100.00;101871.06;2612784;36;19950;-56
2022/05/13 10:37:31;;;;;;;;;;;;;;;18.72;100.00;101869.22;2613091;36;20476;-54
2022/05/13 10:40:03;;;;;;;;;;;;;;;18.54;100.00;101869.34;2613271;36;19950;-54
2022/05/13 10:42:34;;;;;;;;;;;;;;;18.74;97.30;101876.25;2612490;36;20104;-51
2022/05/13 10:45:07;;;;;;;;;;;;;;;17.93;100.00;101874.81;2611521;36;19969;-54
2022/05/13 10:47:41;;;;;;;;;;;;;;;18.86;100.00;101879.53;2612188;36;19957;-56
2022/05/13 10:50:13;;;;;;;;;;;;;;;19.40;97.84;101878.25;2612526;36;20352;-53
2022/05/13 10:52:46;;;;;;;;;;;;;;;19.59;95.33;101863.41;2612523;36;19957;-57
2022/05/13 10:55:19;;;;;;;;;;;;;;;19.05;96.45;101877.53;2612056;36;19946;-52
2022/05/13 10:57:52;;;;;;;;;;;;;;;18.91;97.61;101877.16;2612147;36;20069;-54
2022/05/13 11:00:24;;;;;;;;;;;;;;;18.50;100.00;101881.59;2612746;36;19951;-56
2022/05/13 11:03:16;;;;;;;;;;;;;;;18.73;99.88;101873.69;2613227;31;20408;-52
2022/05/13 11:05:49;;;;;;;;;;;;;;;19.32;100.00;101881.84;2612174;36;20078;-54
2022/05/13 11:08:21;;;;;;;;;;;;;;;19.21;99.57;101872.13;2605108;36;19946;-56
2022/05/13 11:10:54;;;;;;;;;;;;;;;19.36;96.46;101875.03;2612418;36;20053;-56
2022/05/13 11:13:24;;;;;;;;;;;;;;;19.64;100.00;101866.50;2612740;36;19946;-55
2022/05/13 11:15:59;;;;;;;;;;;;;;;19.86;89.84;101864.09;2606594;36;19960;-54
2022/05/13 11:18:33;;;;;;;;;;;;;;;19.85;83.82;101860.53;2612551;36;19958;-54
2022/05/13 11:21:04;;;;;;;;;;;;;;;19.68;80.58;101877.94;2611869;36;19951;-54
2022/05/13 11:23:37;;;;;;;;;;;;;;;19.49;86.38;101879.13;2612639;36;19993;-54
2022/05/13 11:26:16;;;;;;;;;;;;;;;19.10;94.16;101882.50;2612945;36;20162;-55
2022/05/13 11:29:02;;;;;;;;;;;;;;;18.55;100.00;101882.81;2612862;36;20020;-54
2022/05/13 11:31:58;;;;;;;;;;;;;;;17.91;100.00;101884.16;2611727;36;20398;-55
2022/05/13 11:34:33;;;;;;;;;;;;;;;18.42;100.00;101893.31;2613320;31;19951;-57
2022/05/13 11:37:03;;;;;;;;;;;;;;;18.75;100.00;101890.72;2612943;36;20506;-55
2022/05/13 11:39:43;;;;;;;;;;;;;;;18.77;92.66;101891.44;2611775;36;19968;-55
2022/05/13 11:42:19;;;;;;;;;;;;;;;18.74;100.00;101886.28;2612697;36;20062;-54
2022/05/13 11:44:57;;;;;;;;;;;;;;;19.26;90.00;101885.25;2612252;54;19972;-54
2022/05/13 11:47:33;;;;;;;;;;;;;;;18.93;93.03;101885.16;2612748;36;20444;-54
2022/05/13 11:50:01;;;;;;;;;;;;;;;19.03;91.61;101885.03;2612402;36;20432;-56
2022/05/13 11:52:44;;;;;;;;;;;;;;;18.85;95.43;101894.16;2611944;36;19946;-57
2022/05/13 11:55:17;;;;;;;;;;;;;;;18.90;93.28;101902.75;2612619;36;19989;-55
2022/05/13 11:57:46;;;;;;;;;;;;;;;18.96;98.65;101894.91;2612038;36;20352;-55
2022/05/13 12:00:25;;;;;;;;;;;;;;;19.09;100.00;101887.09;2611570;36;19958;-54
2022/05/13 12:02:57;;;;;;;;;;;;;;;18.91;99.63;101898.97;2612518;31;19946;-57
2022/05/13 12:05:30;;;;;;;;;;;;;;;18.85;93.14;101891.44;2612780;36;20442;-54
2022/05/13 12:08:07;;;;;;;;;;;;;;;19.48;93.27;101891.94;2612478;36;20355;-55
2022/05/13 12:10:40;;;;;;;;;;;;;;;19.43;90.19;101897.91;2611269;36;19957;-54
2022/05/13 12:13:16;;;;;;;;;;;;;;;19.06;84.80;101895.63;2612490;36;19954;-52
2022/05/13 12:15:48;;;;;;;;;;;;;;;18.72;89.00;101889.16;2606367;36;19968;-52
2022/05/13 12:18:26;;;;;;;;;;;;;;;18.63;89.54;101894.78;2612467;36;19950;-54
2022/05/13 12:20:58;;;;;;;;;;;;;;;18.71;89.09;101892.06;2605563;36;20529;-54
2022/05/13 12:23:29;;;;;;;;;;;;;;;19.01;89.16;101881.63;2612241;36;20645;-54
2022/05/13 12:25:59;;;;;;;;;;;;;;;19.32;81.23;101890.03;2612048;36;20644;-54
2022/05/13 12:28:42;;;;;;;;;;;;;;;18.87;92.04;101902.22;2612352;36;19947;-54
2022/05/13 12:31:20;;;;;;;;;;;;;;;19.33;84.42;101897.22;2611882;36;20030;-54
2022/05/13 12:37:33;;;;;;;;;;;;;;;19.88;84.40;101894.84;2612632;36;20069;-53
2022/05/13 12:39:44;;;;;;;;;;;;;;;19.32;80.93;101902.84;2612493;31;20439;-53
2022/05/13 12:42:13;;;;;;;;;;;;;;;18.73;86.61;101898.22;2611738;36;19951;-55
2022/05/13 12:44:57;;;;;;;;;;;;;;;19.20;82.87;101903.16;2612630;36;20042;-52
2022/05/13 12:47:28;;;;;;;;;;;;;;;18.90;85.31;101880.94;2612139;31;20487;-54
2022/05/13 12:50:22;;;;;;;;;;;;;;;19.38;84.44;101883.06;2612691;36;20101;-56
2022/05/13 12:52:50;;;;;;;;;;;;;;;18.56;85.72;101884.53;2612419;36;19954;-52
2022/05/13 12:55:22;;;;;;;;;;;;;;;18.77;85.61;101891.44;2612915;36;20376;-52
2022/05/13 12:57:52;;;;;;;;;;;;;;;18.40;94.01;101898.06;2613187;31;20450;-55
2022/05/13 13:00:22;;;;;;;;;;;;;;;18.97;94.06;101896.63;2613115;36;20069;-56
2022/05/13 13:02:51;;;;;;;;;;;;;;;19.45;89.25;101892.28;2613280;36;19958;-54
2022/05/13 13:05:25;;;;;;;;;;;;;;;19.49;91.12;101885.44;2611923;36;20038;-56
2022/05/13 13:07:57;;;;;;;;;;;;;;;19.80;83.81;101886.66;2612376;36;19947;-55
2022/05/13 13:10:27;;;;;;;;;;;;;;;19.28;88.45;101888.66;2612306;36;19958;-56